To NAV CANADA Home Page Login to a new session Search on AWWS site Feedback and Comments Disclaimer Vers la page française équivalente Tips FAQ What's new on the site To the Forecasts and Observations / NOTAM section To "File a Flight Plan" website Publications and other links Update of the User's profile FIC Telephone Numbers My Weather Data Folder Route Weather Data Regional Weather Data Local Weather Data To the Forecasts and Observations / NOTAM section
Request Generated 06/26/2017 at 03:33:25 UTC . Weather information available at that time is displayed.

METAR/TAF

ABBOTSFORD/BC    

METAR CYXX 260300Z 22005KT 30SM FEW160 FEW220 SCT240 25/17 A2981 RMK
AC1CC1CI2 AC TR SLP096 DENSITY ALT 1600FT=
METAR CYXX 260200Z 21006KT 30SM FEW180 BKN220 BKN250 27/17 A2982 RMK
AC2CI3CS2 SLP098 DENSITY ALT 1800FT=
METAR CYXX 260100Z 22007KT 30SM SCT180 BKN220 BKN240 29/19 A2983 RMK
AC3CI3CS1 SLP101 DENSITY ALT 2000FT=

TAF CYXX 252338Z 2600/2624 VRB03KT P6SM BKN200
FM261600 23010KT P6SM SKC
BECMG 2618/2620 23012G22KT
RMK NXT FCST BY 260600Z=
Your time UTC time
Weather data provided by Environment Canada and NAV CANADA